Time;durP1;ratioP1;P1;durP2;ratioP2;P2;SDS_P1;SDS_P2;PMS_P1;PMS_P2;Temp;Humidity;BMP_temperature;BMP_pressure;BME280_temperature;BME280_humidity;BME280_pressure;Samples;Min_cycle;Max_cycle;Signal;HPM_P1;HPM_P2
2022/06/14 00:03:16;;;;;;;;;;;20.80;53.60;;;;;;20625316;28;20533;-73
2022/06/14 00:13:17;;;;;;;;;;;20.80;53.60;;;;;;20625736;28;20021;-73
2022/06/14 00:23:17;;;;;;;;;;;20.80;53.60;;;;;;20640540;28;20526;-73
2022/06/14 00:33:18;;;;;;;;;;;20.80;53.60;;;;;;20650165;28;19926;-73
2022/06/14 00:43:18;;;;;;;;;;;20.70;53.60;;;;;;20622153;28;19914;-73
2022/06/14 00:53:26;;;;;;;;;;;20.80;53.70;;;;;;20622588;28;19922;-73
2022/06/14 01:03:30;;;;;;;;;;;20.70;53.60;;;;;;20607517;28;19914;-74
2022/06/14 01:13:31;;;;;;;;;;;20.70;53.60;;;;;;20637412;28;19976;-73
2022/06/14 01:23:31;;;;;;;;;;;20.70;53.70;;;;;;20636502;28;19913;-73
2022/06/14 01:33:33;;;;;;;;;;;20.60;53.60;;;;;;20633430;28;19943;-73
2022/06/14 01:43:41;;;;;;;;;;;20.60;53.60;;;;;;20601631;28;20415;-74
2022/06/14 01:53:47;;;;;;;;;;;20.60;53.60;;;;;;20618313;28;20384;-73
2022/06/14 02:14:12;;;;;;;;;;;20.60;53.60;;;;;;20633142;28;19926;-73
2022/06/14 02:24:21;;;;;;;;;;;20.50;53.60;;;;;;20615383;28;19965;-73
2022/06/14 02:34:23;;;;;;;;;;;20.50;53.50;;;;;;20662943;28;19926;-73
2022/06/14 02:44:32;;;;;;;;;;;20.50;53.40;;;;;;20645470;28;19914;-73
2022/06/14 02:54:41;;;;;;;;;;;20.50;53.50;;;;;;20646436;28;20508;-73
2022/06/14 03:04:46;;;;;;;;;;;20.40;53.40;;;;;;20641603;28;19914;-73
2022/06/14 03:14:58;;;;;;;;;;;20.40;53.40;;;;;;20627416;28;19922;-73
2022/06/14 03:25:02;;;;;;;;;;;20.40;53.40;;;;;;20630199;28;19922;-73
2022/06/14 03:35:11;;;;;;;;;;;20.40;53.40;;;;;;20658668;28;20372;-73
2022/06/14 03:45:12;;;;;;;;;;;20.40;53.40;;;;;;20644830;28;19920;-73
2022/06/14 03:55:27;;;;;;;;;;;20.30;53.30;;;;;;20643125;28;19964;-74
2022/06/14 04:05:45;;;;;;;;;;;20.30;53.30;;;;;;20639184;28;19949;-73
2022/06/14 04:15:56;;;;;;;;;;;20.30;53.30;;;;;;20624756;28;19964;-74
2022/06/14 04:25:58;;;;;;;;;;;20.30;53.30;;;;;;20610168;28;19914;-76
2022/06/14 04:36:01;;;;;;;;;;;20.30;53.30;;;;;;20649926;28;19980;-75
2022/06/14 04:46:03;;;;;;;;;;;20.30;53.20;;;;;;20637078;28;19913;-71
2022/06/14 04:56:07;;;;;;;;;;;20.30;53.20;;;;;;20643586;28;19922;-72
2022/06/14 05:06:18;;;;;;;;;;;20.30;53.30;;;;;;20650865;28;19953;-71
2022/06/14 05:16:23;;;;;;;;;;;20.20;53.30;;;;;;20675205;28;20600;-70
2022/06/14 05:26:30;;;;;;;;;;;20.20;53.30;;;;;;20642982;28;19914;-71
2022/06/14 05:36:35;;;;;;;;;;;20.20;53.40;;;;;;20661272;28;19933;-73
2022/06/14 05:46:44;;;;;;;;;;;20.20;53.40;;;;;;20635424;28;19973;-73
2022/06/14 05:56:49;;;;;;;;;;;20.20;53.40;;;;;;20620474;28;20072;-74
2022/06/14 06:06:50;;;;;;;;;;;20.20;53.40;;;;;;20641954;28;19914;-72
2022/06/14 06:17:02;;;;;;;;;;;20.20;53.50;;;;;;20644502;28;19921;-73
2022/06/14 06:27:08;;;;;;;;;;;20.20;53.40;;;;;;20629490;28;19918;-73
2022/06/14 06:37:16;;;;;;;;;;;20.20;53.40;;;;;;20651574;28;19925;-72
2022/06/14 06:47:20;;;;;;;;;;;20.20;53.40;;;;;;20655328;28;19914;-73
2022/06/14 06:57:21;;;;;;;;;;;20.20;53.40;;;;;;20655400;28;19926;-72
2022/06/14 07:07:26;;;;;;;;;;;20.20;53.40;;;;;;20660879;28;19913;-72
2022/06/14 07:17:32;;;;;;;;;;;20.30;53.40;;;;;;20641779;28;20009;-72
2022/06/14 07:27:40;;;;;;;;;;;20.20;53.40;;;;;;20657542;28;19918;-73
2022/06/14 07:37:44;;;;;;;;;;;20.20;53.40;;;;;;21092748;23;19940;-77
2022/06/14 07:47:49;;;;;;;;;;;20.20;53.30;;;;;;20762645;28;19914;-77
2022/06/14 07:57:55;;;;;;;;;;;20.30;53.40;;;;;;20719851;28;19921;-77
2022/06/14 08:07:56;;;;;;;;;;;20.30;53.40;;;;;;20726588;28;20348;-78
2022/06/14 08:18:08;;;;;;;;;;;20.20;53.30;;;;;;20761266;28;19984;-78
2022/06/14 08:28:10;;;;;;;;;;;20.30;53.20;;;;;;20740295;28;19925;-78
2022/06/14 08:38:12;;;;;;;;;;;20.20;53.10;;;;;;20740387;28;19937;-79
2022/06/14 08:48:31;;;;;;;;;;;20.20;52.90;;;;;;20728715;28;19917;-78
2022/06/14 08:58:37;;;;;;;;;;;20.20;52.70;;;;;;20744434;28;20264;-78
2022/06/14 09:08:42;;;;;;;;;;;20.30;52.70;;;;;;20755802;28;19971;-78
2022/06/14 09:18:46;;;;;;;;;;;20.20;52.50;;;;;;20747734;28;19921;-78
2022/06/14 09:29:13;;;;;;;;;;;20.20;52.40;;;;;;20757256;28;19923;-78
2022/06/14 09:39:16;;;;;;;;;;;20.20;52.30;;;;;;20727488;28;20312;-77
2022/06/14 09:49:31;;;;;;;;;;;20.20;52.30;;;;;;20729790;28;20372;-79
2022/06/14 09:59:40;;;;;;;;;;;20.20;52.20;;;;;;20750400;28;19929;-79
2022/06/14 10:09:41;;;;;;;;;;;20.20;52.10;;;;;;20740034;28;19930;-76
2022/06/14 10:19:41;;;;;;;;;;;20.20;52.10;;;;;;20751398;28;19924;-78
2022/06/14 10:29:46;;;;;;;;;;;20.20;52.00;;;;;;20763946;28;19981;-79
2022/06/14 10:39:53;;;;;;;;;;;20.20;52.00;;;;;;20725362;28;20410;-77
2022/06/14 10:50:13;;;;;;;;;;;20.20;51.80;;;;;;20764697;28;19922;-79
2022/06/14 11:00:22;;;;;;;;;;;20.20;51.40;;;;;;20770005;28;20351;-74
2022/06/14 11:10:30;;;;;;;;;;;20.20;50.90;;;;;;20734016;28;19928;-78
2022/06/14 11:20:40;;;;;;;;;;;20.20;50.80;;;;;;20750589;28;19938;-82
2022/06/14 11:31:00;;;;;;;;;;;20.20;50.70;;;;;;20759934;28;20487;-81
2022/06/14 11:41:04;;;;;;;;;;;20.20;50.70;;;;;;20717511;28;19948;-80
2022/06/14 11:51:24;;;;;;;;;;;20.20;50.80;;;;;;20730924;28;19925;-80
2022/06/14 12:01:24;;;;;;;;;;;20.20;50.70;;;;;;20740965;28;19939;-81
2022/06/14 12:11:40;;;;;;;;;;;20.20;50.60;;;;;;20760390;28;20442;-79
2022/06/14 12:21:46;;;;;;;;;;;20.20;50.40;;;;;;20745531;28;19924;-79
2022/06/14 12:31:52;;;;;;;;;;;20.20;50.60;;;;;;20769259;28;19929;-78
2022/06/14 12:42:04;;;;;;;;;;;20.20;50.50;;;;;;20768459;28;20060;-80
2022/06/14 12:52:09;;;;;;;;;;;20.20;50.50;;;;;;20713239;28;19992;-80
2022/06/14 13:02:10;;;;;;;;;;;20.20;50.50;;;;;;20744062;28;19914;-80
2022/06/14 13:12:17;;;;;;;;;;;20.30;50.60;;;;;;20739994;28;19928;-80
2022/06/14 13:22:25;;;;;;;;;;;20.30;50.50;;;;;;20754779;28;19952;-80
2022/06/14 13:32:31;;;;;;;;;;;20.40;50.40;;;;;;20762192;28;19929;-81
2022/06/14 13:42:50;;;;;;;;;;;20.40;50.40;;;;;;20745563;28;19925;-78
2022/06/14 13:53:02;;;;;;;;;;;20.40;50.40;;;;;;20743610;28;19979;-79
2022/06/14 14:03:24;;;;;;;;;;;20.50;50.50;;;;;;20753834;28;19920;-82
2022/06/14 14:13:29;;;;;;;;;;;20.60;50.50;;;;;;20775256;28;20104;-83
2022/06/14 14:23:48;;;;;;;;;;;20.70;50.40;;;;;;20756600;28;20284;-76
2022/06/14 14:34:15;;;;;;;;;;;20.80;50.40;;;;;;20770528;28;19971;-74
2022/06/14 14:44:31;;;;;;;;;;;20.90;50.30;;;;;;20744589;28;19924;-76
2022/06/14 14:54:40;;;;;;;;;;;21.00;50.00;;;;;;20771528;28;19925;-77
2022/06/14 15:15:14;;;;;;;;;;;21.20;49.70;;;;;;20774641;28;19925;-76
2022/06/14 15:25:16;;;;;;;;;;;21.30;49.70;;;;;;20750145;28;19918;-78
2022/06/14 15:35:23;;;;;;;;;;;21.30;49.70;;;;;;20738730;28;20390;-77
2022/06/14 15:45:30;;;;;;;;;;;21.40;49.70;;;;;;20748480;28;20315;-78
2022/06/14 15:55:31;;;;;;;;;;;21.50;49.60;;;;;;20765108;28;19932;-76
2022/06/14 16:05:34;;;;;;;;;;;21.60;49.60;;;;;;20746211;28;19992;-77
2022/06/14 16:15:37;;;;;;;;;;;21.60;49.50;;;;;;20748743;28;19967;-78
2022/06/14 16:25:39;;;;;;;;;;;21.70;49.70;;;;;;20747365;28;19913;-77
2022/06/14 16:35:50;;;;;;;;;;;21.80;49.70;;;;;;20734902;28;19921;-73
2022/06/14 16:45:54;;;;;;;;;;;21.80;49.80;;;;;;20751741;28;19913;-80
2022/06/14 16:56:02;;;;;;;;;;;21.90;49.60;;;;;;20760417;28;19965;-72
2022/06/14 17:06:22;;;;;;;;;;;21.80;49.20;;;;;;20761419;28;19997;-77
2022/06/14 17:16:27;;;;;;;;;;;21.90;49.10;;;;;;20784223;28;19921;-73
2022/06/14 17:36:50;;;;;;;;;;;21.90;49.20;;;;;;20731662;28;19929;-77
2022/06/14 17:46:56;;;;;;;;;;;21.90;49.30;;;;;;20747037;28;19924;-82
2022/06/14 17:57:17;;;;;;;;;;;21.90;49.50;;;;;;20706467;28;20016;-82
2022/06/14 18:07:29;;;;;;;;;;;21.90;49.60;;;;;;20743163;28;19914;-83
2022/06/14 18:17:34;;;;;;;;;;;21.80;49.70;;;;;;20743842;28;20289;-76
2022/06/14 18:27:35;;;;;;;;;;;21.80;49.80;;;;;;20743653;28;19996;-76
2022/06/14 18:37:39;;;;;;;;;;;21.70;50.10;;;;;;20745314;28;19928;-75
2022/06/14 18:47:46;;;;;;;;;;;21.60;50.30;;;;;;20741776;28;19953;-76
2022/06/14 18:57:47;;;;;;;;;;;21.60;50.70;;;;;;20773350;28;19921;-77
2022/06/14 19:07:51;;;;;;;;;;;21.50;50.90;;;;;;20724793;28;19914;-76
2022/06/14 19:18:00;;;;;;;;;;;21.40;51.10;;;;;;20813311;28;19925;-75
2022/06/14 19:28:06;;;;;;;;;;;21.30;51.30;;;;;;20761989;28;19917;-75
2022/06/14 19:38:07;;;;;;;;;;;21.30;51.40;;;;;;20754096;28;20292;-76
2022/06/14 19:48:09;;;;;;;;;;;21.30;51.60;;;;;;20769034;28;19999;-76
2022/06/14 19:58:17;;;;;;;;;;;21.20;51.70;;;;;;20773557;28;19928;-76
2022/06/14 20:08:19;;;;;;;;;;;21.10;51.70;;;;;;20752065;28;19956;-75
2022/06/14 20:18:40;;;;;;;;;;;21.10;51.90;;;;;;20717062;28;19928;-76
2022/06/14 20:28:41;;;;;;;;;;;21.10;52.00;;;;;;20748367;28;19920;-76
2022/06/14 20:38:43;;;;;;;;;;;21.00;52.10;;;;;;20765279;28;20263;-75
2022/06/14 20:48:45;;;;;;;;;;;21.00;52.20;;;;;;20746784;28;19920;-75
2022/06/14 20:58:46;;;;;;;;;;;21.00;52.30;;;;;;20760665;28;19932;-76
2022/06/14 21:08:47;;;;;;;;;;;20.90;52.40;;;;;;20744726;28;20276;-75
2022/06/14 21:18:48;;;;;;;;;;;20.90;52.50;;;;;;20735558;28;19922;-76
2022/06/14 21:28:56;;;;;;;;;;;20.90;52.60;;;;;;20770948;28;19921;-75
2022/06/14 21:38:57;;;;;;;;;;;20.90;52.70;;;;;;20753768;28;19928;-75
2022/06/14 21:48:58;;;;;;;;;;;20.90;52.70;;;;;;20728491;28;19914;-75
2022/06/14 21:59:22;;;;;;;;;;;20.80;52.80;;;;;;20747886;28;19925;-75
2022/06/14 22:09:23;;;;;;;;;;;20.80;52.80;;;;;;20742066;28;19915;-76
2022/06/14 22:19:24;;;;;;;;;;;20.80;52.80;;;;;;20755756;28;19922;-75
2022/06/14 22:29:27;;;;;;;;;;;20.80;52.90;;;;;;20757051;28;20350;-75
2022/06/14 22:39:27;;;;;;;;;;;20.70;52.80;;;;;;20771510;28;20371;-76
2022/06/14 22:49:28;;;;;;;;;;;20.70;52.90;;;;;;20762045;28;19920;-76
2022/06/14 22:59:33;;;;;;;;;;;20.70;52.90;;;;;;20735959;28;21396;-75
2022/06/14 23:09:34;;;;;;;;;;;20.70;52.90;;;;;;20733910;28;19914;-75
2022/06/14 23:19:34;;;;;;;;;;;20.70;52.90;;;;;;20769571;28;19921;-75
2022/06/14 23:29:35;;;;;;;;;;;20.60;52.90;;;;;;20778028;28;20036;-75
2022/06/14 23:39:35;;;;;;;;;;;20.60;52.90;;;;;;20767586;28;20352;-74
2022/06/14 23:49:36;;;;;;;;;;;20.60;52.90;;;;;;20766492;28;19913;-74
2022/06/14 23:59:40;;;;;;;;;;;20.60;53.00;;;;;;20765591;28;20390;-74
